Durham, NC (27707)

11:00 AM EDT on July 25, 2016 (GMT -0400)
| | Change Station
Active Advisory: Heat Advisory

Elev -9999 ft 0.00 °N, 0.00 °E | Updated

Clear
Clear
93 °F
Feels Like 101 °F
N
8
Wind Variable Wind from SSW
Gusts mph

Today
High -- | Low -- °F
--% Chance of Precip.
Yesterday
High -- | Low -- °F
Precip. -- in
Pressure 30.04 in
Visibility 10.0 miles
Clouds Clear
Heat Index 101 °F
Dew Point 72 °F
Humidity 52%
Rainfall --
Snow Depth Not available.
6:18 AM 8:25 PM
Waning Gibbous, 65% visible
METAR KIGX 251456Z AUTO VRB06KT 10SM CLR 31/24 A3006 RMK AO2 SLP170 T03110239 58005
Pressure 30.04 in
Visibility 10.0 miles
Clouds Clear
Heat Index 101 °F
Dew Point 72 °F
Humidity 52%
Rainfall --
Snow Depth Not available.
6:18 AM 8:25 PM
Waning Gibbous, 65% visible
METAR KIGX 251456Z AUTO VRB06KT 10SM CLR 31/24 A3006 RMK AO2 SLP170 T03110239 58005

10-Day Weather Forecast

Almanac

Astronomy

Jul. 25, 2016 Rise Set
Actual Time
Civil Twilight
Nautical Twilight
Astronomical Twilight
Moon
Length of Visible Light
Length of Day
Tomorrow will be .
, % of the Moon is Illuminated

Today's Extremes

State Highs State Lows

Community

WunderPhotos

Upload Photos

1,927,305 photos uploaded!

WunderBlog® & News

Nearby

Air Quality

  Air Quality AQ Index Pollutant
Not available.

Snow Depth

Station Depth Elevation

Earthquake Activity

City Distance Mag. Time & Date
Minimum magnitude displayed is 2.5.

Coastal Water Temperatures

Place Temperature

Stations

Nearby Weather Stations

Station Location Temp. Windchill Dew Point Humidity Wind Precip. Elev Updated Type
                   

Watches & Warnings

Heat Advisory
Issued: 10:57 AM EDT Jul. 25, 2016 – National Weather Service

... Heat advisory remains in effect until 8 PM EDT this evening...

* temperatures... highs will be in the mid to upper 90s.

* Heat indices... 103 to 106 degrees.

* Impacts... this heat and humidity will lead to an increased risk
of heat related illnesses... especially among vulnerable
individuals such as the sick and elderly... those exerting
themselves outdoors... and those without air conditioning.

Precautionary/preparedness actions...

A heat advisory means that hot temperatures and high humidity
will create a situation in which heat illnesses are possible.
Drink plenty of fluids... stay in an air-conditioned room... stay
out of the sun... and check up on relatives and neighbors.


Gih